Station info - map view · info · telemetry · weather · raw · status · beacons · messages · bulletins · browse · moving · my account
Callsign, ship name or locator: Clear       
It is possible to search using wildcards (*?) after a prefix. Example: OH*
APRS station KD0QLU-9 - show graphs
Map loading...
Comment: listening on 146.460
Mic-E message: Off duty
Location: 39°11.54' N 109°04.49' W - locator DM59LE16AD - show map - static map
14.0 miles West bearing 269° from Loma, Mesa County, Colorado, United States [?]
18.7 miles West bearing 277° from Fruita, Mesa County, Colorado, United States
29.4 miles West bearing 288° from Grand Junction, Mesa County, Colorado, United States
34.2 miles West bearing 282° from Clifton, Mesa County, Colorado, United States
Last position: 2021-04-13 22:06:43 EDT (6h22m ago)
2021-04-13 20:06:43 MDT local time at Loma, United States [?]
Altitude: 4600 ft
Course: 248°
Speed: 80 MPH
Device: Yaesu: FTM-400DR (rig)
Last path: KD0QLU-9>SYQQUT via BAXTER*,WIDE1*,qAR,AB0TJ (good)
Positions stored: 3630
Packet rate: 266 seconds between packets on average during 13023 seconds.
Stations near current position of KD0QLU-9 - show more
callsign distance last heard - EDT      callsign distance last heard - EDT
KA4FOH-81.7 miles 264°2021-03-19 16:41:41 W0C/RP11912.0 miles 93°2021-03-27 18:26:06
W0BX-917.8 miles 151°2021-04-03 11:02:58 AC0VH-918.4 miles 99°2021-03-20 21:30:43
KC0VVH21.0 miles 107°2021-04-14 04:26:07 KE0VKN-922.7 miles 89°2021-04-13 18:20:40
KE0VKN-722.7 miles 89°2021-04-13 20:44:04 AB0JT-1323.3 miles 108°2021-04-14 04:27:15
AB0JT-923.4 miles 107°2021-03-28 19:26:05 N7ALX-724.0 miles 102°2021-04-09 14:53:56
KE0VKN-824.1 miles 95°2021-04-02 08:20:50 KE0ZPR-924.5 miles 225°2021-04-12 10:55:45
N5WNE-625.7 miles 109°2021-03-24 13:26:02 N5WNE-125.7 miles 109°2021-04-05 16:52:07
KB0DC-1028.9 miles 102°2021-03-30 03:10:07 KB0DC-228.9 miles 102°2021-04-14 04:25:58
KD0KPV-929.1 miles 101°2021-04-02 00:23:30 AC0VH-129.3 miles 106°2021-03-27 17:51:03
K1GUS29.3 miles 100°2021-04-12 09:46:35 WE0B-929.8 miles 105°2021-04-11 21:49:23
Stations which heard KD0QLU-9 directly on radio –
callsign pkts first heard - EDT last heard longest (tx => rx) longest at - EDT
BAXTER 3 2021-04-13 21:46:31 2021-04-13 22:06:43 DM59QC > DM59MO 36.6 miles 335° 2021-04-13 21:46:31
SUNLGT 10 2021-04-13 19:14:16 2021-04-13 20:24:05 DM69AL > DM69HK 33.2 miles 96° 2021-04-13 20:24:05
GRAND 7 2021-04-13 20:32:10 2021-04-13 21:54:35 DM59OE > DM59VC 32.7 miles 101° 2021-04-13 21:54:35
VAILMT 8 2021-04-13 18:26:36 2021-04-13 19:02:09 DM69QP > DM69TO 16.5 miles 103° 2021-04-13 19:02:09
ANVIL 4 2021-04-13 20:00:06 2021-04-13 20:40:26 DM69GN > DM69AM 26.2 miles 264° 2021-04-13 20:00:06
CLIMAX 2 2021-04-13 18:02:36 2021-04-13 18:10:35 DM69XP > DM69VJ 18.5 miles 203° 2021-04-13 18:02:36
SWANMT 1 2021-04-13 17:54:37 2021-04-13 17:54:37 DM79AQ > DM69XO 8.4 miles 219° 2021-04-13 17:54:37
DTSERO 5 2021-04-13 19:10:18 2021-04-13 19:48:06 DM69OQ > DM69JP 21.2 miles 267° 2021-04-13 19:10:18
KD0SFY 1 2021-04-13 14:56:29 2021-04-13 14:56:29 DM79NO > DM78OV 50.6 miles 173° 2021-04-13 14:56:29
K0XK-5 13 2021-04-13 14:50:45 2021-04-13 17:15:41 DM79IQ > DM79OO 25.1 miles 105° 2021-04-13 17:15:41
N4YRE 12 2021-04-13 14:34:44 2021-04-13 16:53:12 DM79KP > DM79NQ 15.7 miles 80° 2021-04-13 16:53:12
ERIDGE 2 2021-04-13 18:29:40 2021-04-13 19:18:17 DM69MP > DM69SU 30.9 miles 66° 2021-04-13 19:18:17
K0MTN-10 3 2021-04-13 14:38:44 2021-04-13 15:53:34 DM79MP > DM79KO 9.6 miles 258° 2021-04-13 14:38:44
PANDO 1 2021-04-13 18:22:35 2021-04-13 18:22:35 DM69UO > DM69TJ 15.0 miles 196° 2021-04-13 18:22:35
W0ARP 1 2021-04-13 16:57:12 2021-04-13 16:57:12 DM79JP > DM79QL 30.7 miles 110° 2021-04-13 16:57:12
WD4IXD-10 2 2021-04-13 16:59:12 2021-04-13 17:03:12 DM79JQ > DM79LM 16.4 miles 142° 2021-04-13 17:03:12
WALDEN 1 2021-04-13 18:06:34 2021-04-13 18:06:34 DM69WN > DN60XL 62.1 miles 3° 2021-04-13 18:06:34
K0NTS-5 11 2021-04-13 14:44:41 2021-04-13 17:31:41 DM79NO > DM79GR 28.7 miles 284° 2021-04-13 14:57:53
W0ARP-3 10 2021-04-13 14:27:07 2021-04-13 17:23:41 DM79GR > DM79QL 44.6 miles 112° 2021-04-13 17:23:41
N0AUX-1 12 2021-04-13 14:40:44 2021-04-13 15:41:37 DM79MQ > DM79KG 29.7 miles 196° 2021-04-13 15:11:08
K0PRW-10 1 2021-04-13 17:01:12 2021-04-13 17:01:12 DM79JR > DM79JW 17.0 miles 4° 2021-04-13 17:01:12
AB0TJ 11 2021-04-13 20:52:25 2021-04-13 21:58:42 DM59NF > DM59SC 23.8 miles 115° 2021-04-13 21:58:42
W0VG 2 2021-04-13 15:45:34 2021-04-13 15:59:19 DM79LP > DM79IO 14.0 miles 260° 2021-04-13 15:45:34
NCFPD 1 2021-04-13 17:15:18 2021-04-13 17:15:18 DM79JQ > DM79VK 56.9 miles 107° 2021-04-13 17:15:18
K0JNM-10 1 2021-04-13 16:23:13 2021-04-13 16:23:13 DM79KP > DM79MM 11.0 miles 131° 2021-04-13 16:23:13
W0SCA-10 1 2021-04-13 17:35:42 2021-04-13 17:35:42 DM79ES > DM79ET 4.6 miles 345° 2021-04-13 17:35:42

Only position packets which were originated by the station are shown here. The range statistics show some extra long hops, because some digipeaters do not correctly add themselves to the digipeater path. Please check the raw packets.
About this site
This page shows real-time information collected from the Automatic Position Reporting System Internet network (APRS-IS). APRS is used by amateur (ham) radio operators to transmit real-time position information, weather data, telemetry and messages over the radio. A vehicle equipped with a GPS receiver, a VHF transmitter or HF transceiver and a small computer device called a tracker transmits it's location, speed and course in a small data packet, which is then received by a nearby iGate receiving site which forwards the packet on the Internet. Systems connected to the Internet can send information on the APRS-IS without a radio transmitter, or collect and display information transmitted anywhere in the world.
User guide · FAQ · Blog · Discussion group · Linking to aprs.fi · AIS sites · Service status · Database statistics · Advertising on aprs.fi · Technical details · API · Change log · Planned changes · Credits and thanks · Terms Of Service · iPhone/iPad APRS